createdAt,value
2018-04-15T00:01:53.609Z,11.50
2018-04-15T00:04:26.594Z,11.60
2018-04-15T00:06:59.080Z,11.50
2018-04-15T00:09:31.029Z,11.40
2018-04-15T00:12:04.183Z,11.40
2018-04-15T00:14:35.799Z,11.40
2018-04-15T00:17:08.204Z,11.50
2018-04-15T00:19:41.127Z,11.60
2018-04-15T00:22:13.822Z,11.70
2018-04-15T00:24:46.114Z,11.50
2018-04-15T00:27:20.500Z,11.50
2018-04-15T00:29:53.525Z,11.30
2018-04-15T00:32:26.209Z,11.20
2018-04-15T00:34:59.892Z,11.30
2018-04-15T00:37:32.605Z,11.30
2018-04-15T00:40:06.069Z,11.20
2018-04-15T00:42:37.825Z,11.20
2018-04-15T00:45:10.975Z,11.10
2018-04-15T00:47:44.507Z,11.20
2018-04-15T00:50:17.293Z,11.20
2018-04-15T00:52:49.947Z,11.20
2018-04-15T00:55:22.019Z,11.20
2018-04-15T00:57:55.291Z,11.10
2018-04-15T01:00:30.828Z,11.20
2018-04-15T01:03:03.617Z,11.30
2018-04-15T01:05:38.459Z,11.20
2018-04-15T01:08:12.606Z,11.00
2018-04-15T01:10:47.484Z,10.90
2018-04-15T01:13:20.014Z,10.90
2018-04-15T01:15:52.331Z,10.90
2018-04-15T01:18:24.500Z,10.90
2018-04-15T01:20:56.488Z,11.00
2018-04-15T01:23:28.252Z,11.00
2018-04-15T01:26:01.967Z,10.90
2018-04-15T01:28:34.679Z,11.00
2018-04-15T01:31:08.077Z,11.00
2018-04-15T01:33:41.407Z,11.00
2018-04-15T01:36:15.352Z,11.00
2018-04-15T01:38:48.089Z,10.90
2018-04-15T01:41:21.919Z,10.80
2018-04-15T01:43:55.501Z,10.70
2018-04-15T01:46:29.248Z,10.60
2018-04-15T01:49:01.776Z,10.60
2018-04-15T01:51:33.855Z,10.60
2018-04-15T01:54:06.063Z,10.60
2018-04-15T01:56:40.756Z,10.50
2018-04-15T01:59:14.939Z,10.50
2018-04-15T02:01:47.639Z,10.60
2018-04-15T02:04:19.984Z,10.60
2018-04-15T02:06:52.246Z,10.80
2018-04-15T02:09:24.382Z,10.90
2018-04-15T02:11:57.791Z,10.90
2018-04-15T02:14:30.130Z,10.90
2018-04-15T02:17:02.021Z,11.00
2018-04-15T02:19:34.371Z,11.00
2018-04-15T02:22:06.051Z,11.00
2018-04-15T02:24:38.736Z,10.90
2018-04-15T02:27:12.571Z,10.70
2018-04-15T02:29:44.719Z,10.70
2018-04-15T02:32:16.707Z,10.80
2018-04-15T02:34:50.598Z,10.80
2018-04-15T02:37:22.703Z,10.80
2018-04-15T02:39:54.604Z,10.90
2018-04-15T02:42:26.347Z,10.80
2018-04-15T02:44:58.654Z,10.70
2018-04-15T02:47:30.786Z,10.70
2018-04-15T02:50:02.564Z,10.80
2018-04-15T02:52:36.103Z,10.80
2018-04-15T02:55:08.309Z,10.80
2018-04-15T02:57:40.104Z,10.80
2018-04-15T03:00:11.553Z,10.70
2018-04-15T03:02:44.561Z,10.60
2018-04-15T03:05:18.122Z,10.50
2018-04-15T03:07:51.228Z,10.50
2018-04-15T03:10:24.393Z,10.40
2018-04-15T03:12:57.446Z,10.40
2018-04-15T03:15:29.342Z,10.40
2018-04-15T03:18:03.083Z,10.40
2018-04-15T03:20:34.222Z,10.40
2018-04-15T03:23:07.334Z,10.40
2018-04-15T03:25:38.963Z,10.40
2018-04-15T03:28:12.257Z,10.40
2018-04-15T03:30:44.326Z,10.30
2018-04-15T03:33:17.935Z,10.30
2018-04-15T03:35:51.520Z,10.20
2018-04-15T03:38:24.099Z,10.10
2018-04-15T03:40:56.065Z,10.10
2018-04-15T03:43:28.455Z,10.10
2018-04-15T03:45:59.860Z,10.10
2018-04-15T03:48:32.343Z,10.10
2018-04-15T03:51:03.644Z,10.10
2018-04-15T03:53:36.019Z,10.10
2018-04-15T03:56:07.235Z,10.10
2018-04-15T03:58:38.602Z,10.10
2018-04-15T04:01:10.131Z,10.10
2018-04-15T04:03:42.714Z,10.00
2018-04-15T04:06:14.590Z,10.00
2018-04-15T04:08:46.540Z,10.00
2018-04-15T04:11:18.906Z,10.00
2018-04-15T04:13:50.707Z,9.90
2018-04-15T04:16:24.429Z,9.90
2018-04-15T04:19:08.111Z,9.90
2018-04-15T04:21:52.906Z,9.90
2018-04-15T04:24:37.800Z,9.80
2018-04-15T04:27:11.926Z,9.80
2018-04-15T04:29:44.205Z,9.90
2018-04-15T04:32:16.928Z,10.00
2018-04-15T04:34:49.323Z,10.10
2018-04-15T04:37:21.734Z,10.20
2018-04-15T04:39:54.738Z,10.20
2018-04-15T04:42:28.641Z,10.30
2018-04-15T04:45:00.624Z,10.20
2018-04-15T04:47:33.970Z,10.30
2018-04-15T04:50:07.167Z,10.20
2018-04-15T04:52:39.531Z,10.40
2018-04-15T04:55:13.776Z,10.50
2018-04-15T04:57:47.802Z,10.50
2018-04-15T05:00:19.478Z,10.60
2018-04-15T05:02:52.256Z,10.60
2018-04-15T05:05:23.611Z,10.70
2018-04-15T05:07:58.408Z,10.60
2018-04-15T05:10:31.363Z,10.70
2018-04-15T05:13:04.118Z,10.80
2018-04-15T05:15:38.805Z,10.90
2018-04-15T05:18:11.951Z,11.10
2018-04-15T05:20:43.949Z,11.20
2018-04-15T05:23:16.738Z,11.30
2018-04-15T05:25:48.718Z,11.40
2018-04-15T05:28:21.359Z,11.50
2018-04-15T05:30:53.820Z,11.50
2018-04-15T05:33:26.167Z,11.50
2018-04-15T05:35:57.850Z,11.50
2018-04-15T05:38:29.965Z,11.60
2018-04-15T05:41:03.307Z,11.60
2018-04-15T05:43:36.959Z,11.90
2018-04-15T05:46:10.153Z,12.40
2018-04-15T05:48:46.164Z,12.90
2018-04-15T05:51:18.725Z,12.90
2018-04-15T05:53:50.169Z,12.90
2018-04-15T05:56:22.136Z,12.90
2018-04-15T05:58:54.957Z,12.80
2018-04-15T06:01:27.805Z,12.90
2018-04-15T06:03:59.624Z,13.10
2018-04-15T06:06:33.187Z,13.60
2018-04-15T06:09:07.883Z,13.60
2018-04-15T06:11:42.683Z,14.80
2018-04-15T06:14:14.759Z,14.70
2018-04-15T06:16:47.427Z,15.20
2018-04-15T06:19:19.936Z,15.50
2018-04-15T06:21:52.777Z,15.40
2018-04-15T06:24:28.541Z,15.20
2018-04-15T06:27:00.572Z,15.30
2018-04-15T06:29:33.165Z,15.30
2018-04-15T06:32:05.552Z,15.30
2018-04-15T06:34:37.601Z,15.20
2018-04-15T06:37:12.103Z,15.30
2018-04-15T06:39:44.055Z,15.30
2018-04-15T06:42:16.394Z,15.30
2018-04-15T06:44:48.850Z,15.40
2018-04-15T06:47:22.564Z,15.60
2018-04-15T06:49:57.018Z,15.80
2018-04-15T06:52:29.035Z,15.80
2018-04-15T06:55:01.426Z,16.10
2018-04-15T06:57:33.290Z,16.10
2018-04-15T07:00:05.903Z,16.20
2018-04-15T07:02:38.658Z,16.00
2018-04-15T07:05:11.279Z,16.10
2018-04-15T07:07:44.997Z,16.10
2018-04-15T07:10:16.067Z,16.30
2018-04-15T07:12:49.013Z,16.40
2018-04-15T07:15:20.783Z,16.40
2018-04-15T07:17:53.567Z,16.70
2018-04-15T07:20:25.104Z,17.10
2018-04-15T07:22:58.083Z,18.00
2018-04-15T07:25:30.556Z,19.00
2018-04-15T07:28:03.450Z,20.00
2018-04-15T07:30:36.731Z,20.00
2018-04-15T07:33:08.191Z,20.30
2018-04-15T07:35:41.464Z,20.90
2018-04-15T07:38:14.268Z,21.10
2018-04-15T07:40:49.917Z,21.20
2018-04-15T07:43:22.424Z,21.30
2018-04-15T07:45:57.744Z,21.50
2018-04-15T07:48:30.371Z,22.00
2018-04-15T07:51:02.247Z,22.20
2018-04-15T07:53:34.131Z,22.20
2018-04-15T07:56:07.270Z,22.10
2018-04-15T07:58:39.881Z,22.50
2018-04-15T08:01:12.400Z,22.70
2018-04-15T08:03:44.538Z,22.60
2018-04-15T08:06:17.176Z,22.50
2018-04-15T08:08:50.377Z,22.50
2018-04-15T08:11:21.575Z,22.20
2018-04-15T08:13:56.637Z,21.80
2018-04-15T08:16:29.073Z,21.70
2018-04-15T08:19:04.368Z,21.70
2018-04-15T08:21:35.801Z,21.70
2018-04-15T08:24:07.019Z,21.40
2018-04-15T08:26:38.840Z,21.20
2018-04-15T08:29:13.530Z,20.90
2018-04-15T08:31:47.167Z,20.80
2018-04-15T08:34:19.965Z,20.60
2018-04-15T08:36:51.318Z,20.40
2018-04-15T08:39:24.815Z,20.80
2018-04-15T08:41:57.306Z,20.70
2018-04-15T08:44:29.449Z,20.70
2018-04-15T08:47:00.759Z,20.60
2018-04-15T08:49:32.440Z,20.50
2018-04-15T08:52:04.239Z,20.30
2018-04-15T08:54:37.090Z,20.00
2018-04-15T08:57:08.683Z,19.90
2018-04-15T08:59:41.528Z,20.20
2018-04-15T09:02:14.963Z,20.60
2018-04-15T09:04:46.494Z,20.90
2018-04-15T09:07:18.208Z,21.60
2018-04-15T09:09:50.035Z,21.90
2018-04-15T09:12:22.611Z,23.10
2018-04-15T09:14:54.795Z,24.20
2018-04-15T09:17:26.374Z,24.80
2018-04-15T09:19:58.585Z,24.90
2018-04-15T09:22:31.707Z,25.30
2018-04-15T09:25:04.807Z,25.00
2018-04-15T09:27:37.849Z,24.50
2018-04-15T09:30:11.232Z,23.90
2018-04-15T09:32:44.061Z,23.60
2018-04-15T09:35:17.940Z,23.50
2018-04-15T09:37:50.445Z,23.70
2018-04-15T09:40:22.930Z,23.70
2018-04-15T09:42:56.219Z,24.10
2018-04-15T09:45:29.687Z,24.70
2018-04-15T09:48:02.555Z,24.70
2018-04-15T09:50:33.821Z,24.40
2018-04-15T09:53:05.483Z,24.00
2018-04-15T09:55:38.541Z,23.60
2018-04-15T09:58:10.589Z,24.20
2018-04-15T10:00:42.283Z,24.60
2018-04-15T10:03:16.457Z,24.60
2018-04-15T10:05:49.411Z,24.10
2018-04-15T10:08:21.893Z,24.00
2018-04-15T10:10:54.520Z,24.20
2018-04-15T10:13:29.470Z,24.00
2018-04-15T10:16:01.383Z,23.40
2018-04-15T10:18:34.402Z,23.40
2018-04-15T10:21:08.187Z,23.80
2018-04-15T10:23:40.268Z,24.60
2018-04-15T10:26:12.078Z,24.60
2018-04-15T10:28:43.517Z,24.80
2018-04-15T10:31:19.479Z,24.90
2018-04-15T10:33:56.665Z,25.00
2018-04-15T10:36:33.290Z,24.90
2018-04-15T10:39:09.671Z,24.90
2018-04-15T10:41:44.667Z,25.20
2018-04-15T10:44:21.499Z,25.70
2018-04-15T10:46:58.436Z,25.60
2018-04-15T10:49:39.116Z,25.40
2018-04-15T10:52:14.549Z,24.90
2018-04-15T10:54:50.756Z,25.90
2018-04-15T10:57:27.110Z,27.00
2018-04-15T11:00:05.247Z,28.10
2018-04-15T11:02:42.646Z,28.40
2018-04-15T11:05:20.547Z,28.40
2018-04-15T11:07:55.606Z,28.40
2018-04-15T11:10:31.300Z,27.90
2018-04-15T11:13:07.990Z,28.30
2018-04-15T11:15:44.267Z,28.50
2018-04-15T11:18:21.488Z,28.60
2018-04-15T11:20:56.850Z,29.20
2018-04-15T11:23:33.543Z,27.70
2018-04-15T11:26:09.190Z,27.20
2018-04-15T11:28:45.035Z,26.40
2018-04-15T11:31:22.090Z,25.90
2018-04-15T11:33:59.331Z,26.40
2018-04-15T11:36:37.904Z,26.90
2018-04-15T11:39:13.679Z,26.30
2018-04-15T11:41:50.861Z,25.40
2018-04-15T11:44:26.726Z,24.70
2018-04-15T11:47:02.269Z,24.20
2018-04-15T11:49:38.859Z,24.30
2018-04-15T11:52:14.986Z,24.10
2018-04-15T11:54:50.745Z,24.10
2018-04-15T11:57:27.114Z,24.20
2018-04-15T12:00:02.582Z,24.20
2018-04-15T12:02:39.685Z,24.30
2018-04-15T12:05:17.317Z,24.10
2018-04-15T12:07:53.803Z,23.70
2018-04-15T12:10:30.678Z,23.20
2018-04-15T12:13:07.498Z,23.20
2018-04-15T12:15:43.877Z,23.00
2018-04-15T12:18:20.560Z,22.50
2018-04-15T12:20:56.672Z,22.50
2018-04-15T12:23:32.297Z,22.50
2018-04-15T12:26:08.267Z,22.60
2018-04-15T12:28:44.586Z,22.80
2018-04-15T12:31:21.917Z,22.80
2018-04-15T12:33:57.836Z,23.00
2018-04-15T12:36:34.563Z,23.20
2018-04-15T12:39:11.705Z,25.00
2018-04-15T12:41:48.392Z,24.90
2018-04-15T12:44:25.094Z,26.20
2018-04-15T12:47:02.106Z,26.80
2018-04-15T12:49:38.655Z,27.70
2018-04-15T12:52:14.205Z,27.70
2018-04-15T12:54:49.667Z,28.20
2018-04-15T12:57:25.665Z,28.80
2018-04-15T13:00:03.852Z,28.90
2018-04-15T13:02:41.351Z,29.00
2018-04-15T13:05:18.919Z,28.10
2018-04-15T13:07:55.270Z,29.00
2018-04-15T13:10:32.235Z,29.00
2018-04-15T13:13:07.500Z,29.10
2018-04-15T13:15:43.670Z,30.00
2018-04-15T13:18:21.513Z,29.70
2018-04-15T13:20:58.716Z,29.70
2018-04-15T13:23:34.898Z,29.90
2018-04-15T13:26:12.414Z,29.60
2018-04-15T13:28:48.996Z,29.30
2018-04-15T13:31:25.376Z,29.30
2018-04-15T13:34:02.311Z,29.30
2018-04-15T13:36:39.119Z,29.40
2018-04-15T13:39:16.282Z,29.40
2018-04-15T13:41:54.162Z,28.60
2018-04-15T13:44:31.328Z,29.10
2018-04-15T13:47:08.917Z,29.40
2018-04-15T13:49:45.495Z,29.10
2018-04-15T13:52:21.419Z,29.10
2018-04-15T13:54:57.054Z,29.10
2018-04-15T13:57:33.197Z,28.40
2018-04-15T14:00:08.699Z,28.30
2018-04-15T14:02:44.799Z,28.20
2018-04-15T14:05:21.611Z,28.70
2018-04-15T14:07:58.633Z,28.80
2018-04-15T14:10:36.190Z,28.60
2018-04-15T14:13:11.987Z,28.50
2018-04-15T14:15:49.025Z,28.00
2018-04-15T14:18:26.243Z,26.90
2018-04-15T14:21:04.448Z,26.20
2018-04-15T14:23:40.825Z,25.70
2018-04-15T14:26:16.029Z,25.30
2018-04-15T14:28:51.618Z,25.20
2018-04-15T14:31:29.570Z,25.50
2018-04-15T14:34:07.217Z,25.90
2018-04-15T14:36:43.253Z,26.60
2018-04-15T14:39:20.000Z,26.40
2018-04-15T14:41:55.645Z,25.90
2018-04-15T14:44:31.513Z,25.40
2018-04-15T14:47:06.869Z,25.00
2018-04-15T14:49:41.970Z,24.60
2018-04-15T14:52:17.082Z,24.20
2018-04-15T14:54:53.532Z,24.00
2018-04-15T14:57:29.029Z,23.80
2018-04-15T15:00:05.905Z,23.70
2018-04-15T15:02:41.221Z,23.70
2018-04-15T15:05:16.488Z,23.60
2018-04-15T15:07:56.822Z,23.60
2018-04-15T15:10:32.634Z,23.60
2018-04-15T15:13:08.390Z,23.60
2018-04-15T15:15:43.286Z,23.60
2018-04-15T15:18:19.895Z,23.50
2018-04-15T15:20:56.504Z,23.30
2018-04-15T15:23:31.881Z,23.10
2018-04-15T15:26:08.683Z,23.00
2018-04-15T15:28:44.759Z,22.90
2018-04-15T15:31:23.519Z,22.80
2018-04-15T15:34:03.690Z,22.70
2018-04-15T15:36:41.504Z,22.40
2018-04-15T15:39:17.284Z,22.30
2018-04-15T15:41:52.914Z,22.10
2018-04-15T15:44:28.395Z,22.10
2018-04-15T15:47:03.737Z,22.00
2018-04-15T15:49:45.088Z,21.90
2018-04-15T15:52:20.246Z,21.90
2018-04-15T15:54:55.698Z,21.90
2018-04-15T15:57:31.163Z,21.80
2018-04-15T16:00:08.895Z,21.80
2018-04-15T16:02:44.418Z,21.70
2018-04-15T16:05:20.075Z,21.60
2018-04-15T16:07:55.353Z,21.50
2018-04-15T16:10:31.867Z,21.50
2018-04-15T16:13:07.313Z,21.60
2018-04-15T16:15:43.327Z,21.50
2018-04-15T16:18:19.277Z,21.40
2018-04-15T16:20:54.647Z,21.30
2018-04-15T16:23:42.654Z,21.20
2018-04-15T16:26:18.779Z,21.20
2018-04-15T16:28:55.494Z,21.10
2018-04-15T16:31:31.623Z,21.10
2018-04-15T16:34:07.050Z,21.10
2018-04-15T16:36:42.377Z,21.00
2018-04-15T16:39:18.231Z,20.90
2018-04-15T16:41:54.614Z,20.90
2018-04-15T16:44:31.555Z,20.90
2018-04-15T16:47:06.787Z,20.80
2018-04-15T16:49:41.318Z,20.70
2018-04-15T16:52:17.369Z,20.70
2018-04-15T16:54:53.649Z,20.60
2018-04-15T16:57:29.088Z,20.60
2018-04-15T17:00:03.906Z,20.50
2018-04-15T17:02:40.486Z,20.40
2018-04-15T17:05:16.348Z,20.40
2018-04-15T17:07:52.266Z,20.30
2018-04-15T17:10:32.131Z,20.50
2018-04-15T17:13:12.130Z,20.50
2018-04-15T17:15:51.772Z,20.40
2018-04-15T17:18:31.554Z,20.20
2018-04-15T17:21:11.567Z,20.00
2018-04-15T17:23:51.416Z,19.90
2018-04-15T17:26:31.439Z,19.90
2018-04-15T17:29:11.356Z,19.90
2018-04-15T17:31:51.270Z,19.90
2018-04-15T17:34:31.123Z,20.00
2018-04-15T17:37:11.042Z,20.00
2018-04-15T17:39:50.654Z,19.90
2018-04-15T17:42:31.135Z,19.70
2018-04-15T17:45:11.081Z,19.50
2018-04-15T17:47:51.098Z,19.30
2018-04-15T17:50:31.375Z,19.20
2018-04-15T17:53:12.095Z,19.00
2018-04-15T17:55:52.623Z,18.90
2018-04-15T17:58:32.811Z,18.80
2018-04-15T18:01:14.258Z,18.70
2018-04-15T18:03:53.863Z,18.60
2018-04-15T18:06:33.923Z,18.60
2018-04-15T18:09:15.517Z,18.60
2018-04-15T18:11:55.591Z,18.50
2018-04-15T18:14:35.481Z,18.50
2018-04-15T18:17:15.468Z,18.30
2018-04-15T18:19:56.467Z,18.30
2018-04-15T18:22:38.264Z,18.00
2018-04-15T18:25:13.035Z,18.00
2018-04-15T18:27:53.087Z,17.90
2018-04-15T18:30:32.685Z,17.70
2018-04-15T18:33:12.982Z,17.60
2018-04-15T18:35:53.624Z,17.50
2018-04-15T18:38:33.470Z,17.40
2018-04-15T18:41:13.809Z,17.30
2018-04-15T18:43:53.733Z,17.20
2018-04-15T18:46:34.713Z,17.20
2018-04-15T18:49:15.096Z,17.10
2018-04-15T18:51:55.362Z,17.00
2018-04-15T18:54:35.488Z,16.90
2018-04-15T18:57:15.651Z,16.80
2018-04-15T18:59:55.910Z,16.70
2018-04-15T19:02:35.794Z,16.70
2018-04-15T19:05:16.052Z,16.70
2018-04-15T19:07:56.963Z,16.60
2018-04-15T19:10:37.180Z,16.60
2018-04-15T19:13:17.563Z,16.50
2018-04-15T19:15:58.541Z,16.70
2018-04-15T19:18:38.807Z,16.60
2018-04-15T19:21:18.780Z,16.80
2018-04-15T19:23:59.643Z,16.60
2018-04-15T19:26:39.650Z,16.60
2018-04-15T19:29:20.311Z,16.50
2018-04-15T19:32:01.182Z,16.30
2018-04-15T19:34:42.541Z,16.30
2018-04-15T19:37:23.286Z,16.20
2018-04-15T19:40:04.472Z,16.20
2018-04-15T19:42:44.777Z,16.10
2018-04-15T19:45:25.179Z,16.10
2018-04-15T19:48:04.701Z,16.00
2018-04-15T19:50:44.699Z,15.90
2018-04-15T19:53:25.349Z,15.80
2018-04-15T19:56:00.489Z,15.70
2018-04-15T19:58:37.980Z,15.60
2018-04-15T20:01:13.399Z,15.50
2018-04-15T20:03:49.983Z,15.50
2018-04-15T20:06:28.054Z,15.50
2018-04-15T20:09:04.459Z,15.50
2018-04-15T20:11:42.050Z,15.70
2018-04-15T20:14:17.527Z,15.80
2018-04-15T20:16:53.751Z,15.80
2018-04-15T20:19:29.514Z,15.70
2018-04-15T20:22:05.297Z,15.70
2018-04-15T20:24:42.623Z,15.60
2018-04-15T20:27:18.384Z,15.50
2018-04-15T20:29:54.305Z,15.50
2018-04-15T20:32:29.748Z,15.40
2018-04-15T20:35:05.836Z,15.40
2018-04-15T20:37:43.981Z,15.40
2018-04-15T20:40:21.131Z,15.30
2018-04-15T20:42:57.002Z,15.30
2018-04-15T20:45:32.529Z,15.40
2018-04-15T20:48:09.080Z,15.50
2018-04-15T20:50:46.760Z,15.40
2018-04-15T20:53:22.531Z,15.40
2018-04-15T20:55:58.165Z,15.40
2018-04-15T20:58:33.958Z,15.40
2018-04-15T21:01:09.407Z,15.40
2018-04-15T21:03:45.153Z,15.40
2018-04-15T21:06:23.813Z,15.40
2018-04-15T21:09:00.032Z,15.40
2018-04-15T21:11:35.891Z,15.40
2018-04-15T21:14:12.426Z,15.40
2018-04-15T21:16:48.099Z,15.40
2018-04-15T21:19:24.256Z,15.50
2018-04-15T21:22:00.003Z,15.50
2018-04-15T21:24:37.051Z,15.60
2018-04-15T21:27:14.386Z,15.70
2018-04-15T21:29:49.591Z,15.60
2018-04-15T21:32:25.201Z,15.60
2018-04-15T21:35:01.805Z,15.50
2018-04-15T21:37:38.544Z,15.60
2018-04-15T21:40:14.331Z,15.60
2018-04-15T21:42:49.799Z,15.60
2018-04-15T21:45:25.570Z,15.60
2018-04-15T21:48:02.202Z,15.60
2018-04-15T21:50:38.801Z,15.60
2018-04-15T21:53:14.917Z,15.60
2018-04-15T21:55:50.377Z,15.60
2018-04-15T21:58:26.830Z,15.60
2018-04-15T22:01:02.416Z,15.50
2018-04-15T22:03:37.890Z,15.50
2018-04-15T22:06:13.984Z,15.40
2018-04-15T22:08:49.481Z,15.40
2018-04-15T22:11:36.162Z,15.40
2018-04-15T22:14:13.756Z,15.40
2018-04-15T22:16:50.458Z,15.30
2018-04-15T22:19:26.195Z,15.30
2018-04-15T22:22:01.943Z,15.30
2018-04-15T22:24:37.747Z,15.30
2018-04-15T22:27:13.218Z,15.30
2018-04-15T22:29:49.582Z,15.30
2018-04-15T22:32:25.843Z,15.40
2018-04-15T22:35:01.629Z,15.40
2018-04-15T22:37:37.963Z,15.50
2018-04-15T22:40:13.409Z,15.60
2018-04-15T22:42:50.381Z,15.70
2018-04-15T22:45:26.679Z,15.70
2018-04-15T22:48:05.338Z,15.60
2018-04-15T22:50:42.568Z,15.60
2018-04-15T22:53:19.536Z,15.50
2018-04-15T22:55:55.599Z,15.40
2018-04-15T22:58:38.252Z,15.30
2018-04-15T23:01:13.563Z,15.30
2018-04-15T23:03:49.053Z,15.30
2018-04-15T23:06:25.099Z,15.30
2018-04-15T23:09:01.097Z,15.40
2018-04-15T23:11:39.481Z,15.30
2018-04-15T23:14:15.777Z,15.30
2018-04-15T23:16:52.451Z,15.30
2018-04-15T23:19:27.987Z,15.30
2018-04-15T23:22:04.417Z,15.20
2018-04-15T23:24:42.056Z,15.20
2018-04-15T23:27:20.103Z,15.20
2018-04-15T23:29:56.018Z,15.20
2018-04-15T23:32:32.558Z,15.30
2018-04-15T23:35:10.459Z,15.30
2018-04-15T23:37:46.392Z,15.30
2018-04-15T23:40:22.374Z,15.30
2018-04-15T23:42:58.216Z,15.40
2018-04-15T23:45:34.397Z,15.30
2018-04-15T23:48:10.596Z,15.20
2018-04-15T23:50:48.466Z,15.20
2018-04-15T23:53:24.587Z,15.10
2018-04-15T23:56:00.598Z,15.10
2018-04-15T23:58:36.667Z,15.00
